createdAt,value
2018-04-22T00:00:29.883Z,17.70
2018-04-22T00:02:58.935Z,17.80
2018-04-22T00:05:27.179Z,17.70
2018-04-22T00:07:55.453Z,17.70
2018-04-22T00:10:23.716Z,17.60
2018-04-22T00:12:51.987Z,17.60
2018-04-22T00:15:20.235Z,17.50
2018-04-22T00:17:48.492Z,17.40
2018-04-22T00:20:16.788Z,17.50
2018-04-22T00:22:45.903Z,17.60
2018-04-22T00:25:14.135Z,17.50
2018-04-22T00:27:44.058Z,17.60
2018-04-22T00:30:13.120Z,17.50
2018-04-22T00:32:42.676Z,17.40
2018-04-22T00:35:10.915Z,17.50
2018-04-22T00:37:39.176Z,17.50
2018-04-22T00:40:08.002Z,17.50
2018-04-22T00:42:36.584Z,17.40
2018-04-22T00:45:04.831Z,17.40
2018-04-22T00:47:33.760Z,17.40
2018-04-22T00:50:02.238Z,17.30
2018-04-22T00:52:30.488Z,17.40
2018-04-22T00:54:58.755Z,17.20
2018-04-22T00:57:26.995Z,17.20
2018-04-22T00:59:55.253Z,17.20
2018-04-22T01:02:23.500Z,17.00
2018-04-22T01:04:51.828Z,16.90
2018-04-22T01:07:20.099Z,17.00
2018-04-22T01:09:48.371Z,16.90
2018-04-22T01:12:16.618Z,16.80
2018-04-22T01:14:45.649Z,16.80
2018-04-22T01:17:13.871Z,17.00
2018-04-22T01:19:42.132Z,16.80
2018-04-22T01:22:10.364Z,16.80
2018-04-22T01:24:38.639Z,16.90
2018-04-22T01:27:07.661Z,16.90
2018-04-22T01:29:35.927Z,16.80
2018-04-22T01:32:04.213Z,16.70
2018-04-22T01:34:32.519Z,16.40
2018-04-22T01:37:00.768Z,16.60
2018-04-22T01:39:29.037Z,16.70
2018-04-22T01:41:58.311Z,16.90
2018-04-22T01:44:27.200Z,16.80
2018-04-22T01:46:56.333Z,16.70
2018-04-22T01:49:25.458Z,16.50
2018-04-22T01:51:53.774Z,16.50
2018-04-22T01:54:22.059Z,16.70
2018-04-22T01:56:50.284Z,16.50
2018-04-22T01:59:19.312Z,16.70
2018-04-22T02:01:47.574Z,16.70
2018-04-22T02:04:16.588Z,16.50
2018-04-22T02:06:45.595Z,16.50
2018-04-22T02:09:13.853Z,16.50
2018-04-22T02:11:42.799Z,16.60
2018-04-22T02:14:11.055Z,16.50
2018-04-22T02:16:39.324Z,16.40
2018-04-22T02:19:07.585Z,16.30
2018-04-22T02:21:36.824Z,16.30
2018-04-22T02:24:05.277Z,16.30
2018-04-22T02:26:34.548Z,16.40
2018-04-22T02:29:02.827Z,16.40
2018-04-22T02:31:31.089Z,16.20
2018-04-22T02:33:59.348Z,16.40
2018-04-22T02:36:27.595Z,16.30
2018-04-22T02:38:56.603Z,16.50
2018-04-22T02:41:24.876Z,16.50
2018-04-22T02:43:53.905Z,16.50
2018-04-22T02:46:22.166Z,16.40
2018-04-22T02:48:50.428Z,16.40
2018-04-22T02:51:20.193Z,16.30
2018-04-22T02:53:48.413Z,16.20
2018-04-22T02:56:18.311Z,16.50
2018-04-22T02:58:46.549Z,16.20
2018-04-22T03:01:14.812Z,16.30
2018-04-22T03:03:44.317Z,16.30
2018-04-22T03:06:13.983Z,16.20
2018-04-22T03:08:42.245Z,16.20
2018-04-22T03:11:10.508Z,16.30
2018-04-22T03:13:38.763Z,16.20
2018-04-22T03:16:07.800Z,16.30
2018-04-22T03:18:36.048Z,16.30
2018-04-22T03:21:05.118Z,16.10
2018-04-22T03:23:33.346Z,16.10
2018-04-22T03:26:01.608Z,16.10
2018-04-22T03:28:30.643Z,16.00
2018-04-22T03:30:59.660Z,16.00
2018-04-22T03:33:28.001Z,15.90
2018-04-22T03:35:56.269Z,15.80
2018-04-22T03:38:25.855Z,15.80
2018-04-22T03:40:54.095Z,15.80
2018-04-22T03:43:22.349Z,15.90
2018-04-22T03:45:51.370Z,16.00
2018-04-22T03:48:19.627Z,16.00
2018-04-22T03:50:49.519Z,16.20
2018-04-22T03:53:17.776Z,16.20
2018-04-22T03:55:46.042Z,16.00
2018-04-22T03:58:14.286Z,15.90
2018-04-22T04:00:42.593Z,16.00
2018-04-22T04:03:10.847Z,16.20
2018-04-22T04:05:39.896Z,16.30
2018-04-22T04:08:08.147Z,16.30
2018-04-22T04:10:37.217Z,16.10
2018-04-22T04:13:05.469Z,16.10
2018-04-22T04:15:33.729Z,16.20
2018-04-22T04:21:31.128Z,15.90
2018-04-22T04:27:24.806Z,15.90
2018-04-22T04:29:54.012Z,16.00
2018-04-22T04:32:23.053Z,16.00
2018-04-22T04:34:51.280Z,16.00
2018-04-22T04:37:20.504Z,15.90
2018-04-22T04:39:49.502Z,16.10
2018-04-22T04:42:18.640Z,16.00
2018-04-22T04:44:47.749Z,16.00
2018-04-22T04:47:16.016Z,15.80
2018-04-22T04:49:44.270Z,15.80
2018-04-22T04:52:12.750Z,15.70
2018-04-22T04:54:41.766Z,16.00
2018-04-22T04:57:10.111Z,16.00
2018-04-22T04:59:38.339Z,16.10
2018-04-22T05:02:06.612Z,16.10
2018-04-22T05:04:34.864Z,16.30
2018-04-22T05:07:04.761Z,16.10
2018-04-22T05:09:33.036Z,16.10
2018-04-22T05:12:01.295Z,16.10
2018-04-22T05:14:30.056Z,16.00
2018-04-22T05:16:58.327Z,16.00
2018-04-22T05:19:27.333Z,15.70
2018-04-22T05:21:55.621Z,15.70
2018-04-22T05:24:23.908Z,15.70
2018-04-22T05:26:52.129Z,15.60
2018-04-22T05:29:20.367Z,15.70
2018-04-22T05:31:49.407Z,15.80
2018-04-22T05:34:17.657Z,16.10
2018-04-22T05:36:45.917Z,16.20
2018-04-22T05:39:15.078Z,16.30
2018-04-22T05:41:44.202Z,16.30
2018-04-22T05:44:12.524Z,16.40
2018-04-22T05:46:40.799Z,16.60
2018-04-22T05:49:09.057Z,16.90
2018-04-22T05:51:38.105Z,17.20
2018-04-22T05:54:06.382Z,17.20
2018-04-22T05:56:34.637Z,17.20
2018-04-22T05:59:03.782Z,17.40
2018-04-22T06:01:33.548Z,17.70
2018-04-22T06:04:01.811Z,17.70
2018-04-22T06:06:30.951Z,18.00
2018-04-22T06:08:59.896Z,18.00
2018-04-22T06:11:28.631Z,17.70
2018-04-22T06:13:56.908Z,18.00
2018-04-22T06:16:25.206Z,18.20
2018-04-22T06:18:54.898Z,18.50
2018-04-22T06:21:24.495Z,18.90
2018-04-22T06:23:53.556Z,19.10
2018-04-22T06:26:22.592Z,19.40
2018-04-22T06:28:51.608Z,19.50
2018-04-22T06:31:19.886Z,19.50
2018-04-22T06:33:48.965Z,19.90
2018-04-22T06:36:17.192Z,19.80
2018-04-22T06:38:45.478Z,20.20
2018-04-22T06:41:13.756Z,20.30
2018-04-22T06:43:42.018Z,20.50
2018-04-22T06:46:10.266Z,20.70
2018-04-22T06:48:38.568Z,20.90
2018-04-22T06:51:06.817Z,21.20
2018-04-22T06:53:35.111Z,21.50
2018-04-22T06:56:03.353Z,21.90
2018-04-22T06:58:31.647Z,22.10
2018-04-22T07:00:59.872Z,22.30
2018-04-22T07:03:28.985Z,22.80
2018-04-22T07:05:58.050Z,22.70
2018-04-22T07:08:26.317Z,23.10
2018-04-22T07:10:54.624Z,23.50
2018-04-22T07:13:23.652Z,24.00
2018-04-22T07:15:51.905Z,24.00
2018-04-22T07:18:20.945Z,24.50
2018-04-22T07:20:49.256Z,24.50
2018-04-22T07:23:17.580Z,24.70
2018-04-22T07:25:45.819Z,24.70
2018-04-22T07:28:14.066Z,24.70
2018-04-22T07:30:42.303Z,25.10
2018-04-22T07:33:11.353Z,25.60
2018-04-22T07:35:39.615Z,25.60
2018-04-22T07:38:07.907Z,25.90
2018-04-22T07:40:36.189Z,26.10
2018-04-22T07:43:04.396Z,26.20
2018-04-22T07:45:33.513Z,26.60
2018-04-22T07:48:01.777Z,26.70
2018-04-22T07:50:30.008Z,26.90
2018-04-22T07:52:58.333Z,27.10
2018-04-22T07:55:26.594Z,27.20
2018-04-22T07:57:54.839Z,27.50
2018-04-22T08:00:23.876Z,28.00
2018-04-22T08:02:52.134Z,27.90
2018-04-22T08:05:21.140Z,28.30
2018-04-22T08:07:49.407Z,28.30
2018-04-22T08:10:18.921Z,28.30
2018-04-22T08:12:47.296Z,28.30
2018-04-22T08:15:16.404Z,28.60
2018-04-22T08:17:45.445Z,28.80
2018-04-22T08:20:13.716Z,28.80
2018-04-22T08:22:42.000Z,29.10
2018-04-22T08:25:10.252Z,28.80
2018-04-22T08:27:39.288Z,28.80
2018-04-22T08:30:09.013Z,28.80
2018-04-22T08:32:37.280Z,28.70
2018-04-22T08:35:06.390Z,28.80
2018-04-22T08:37:34.648Z,29.00
2018-04-22T08:40:02.925Z,29.10
2018-04-22T08:42:31.202Z,29.20
2018-04-22T08:44:59.461Z,29.10
2018-04-22T08:47:28.480Z,29.20
2018-04-22T08:49:56.759Z,29.20
2018-04-22T08:52:25.896Z,29.30
2018-04-22T08:54:54.157Z,29.30
2018-04-22T08:57:22.444Z,29.40
2018-04-22T08:59:50.685Z,29.50
2018-04-22T09:02:18.960Z,29.80
2018-04-22T09:04:47.230Z,29.80
2018-04-22T09:07:15.492Z,29.80
2018-04-22T09:09:43.744Z,30.00
2018-04-22T09:12:12.030Z,30.20
2018-04-22T09:14:40.286Z,30.30
2018-04-22T09:17:09.316Z,30.10
2018-04-22T09:19:37.575Z,30.10
2018-04-22T09:22:05.816Z,30.20
2018-04-22T09:24:34.077Z,30.20
2018-04-22T09:27:02.330Z,30.30
2018-04-22T09:29:30.572Z,30.30
2018-04-22T09:31:59.595Z,30.60
2018-04-22T09:34:27.885Z,30.60
2018-04-22T09:36:56.136Z,30.70
2018-04-22T09:39:25.181Z,30.80
2018-04-22T09:41:53.400Z,30.80
2018-04-22T09:44:21.668Z,30.90
2018-04-22T09:46:49.920Z,30.90
2018-04-22T09:49:18.207Z,30.90
2018-04-22T09:51:46.448Z,31.20
2018-04-22T09:54:15.501Z,31.70
2018-04-22T09:56:44.360Z,31.60
2018-04-22T09:59:13.820Z,31.70
2018-04-22T10:01:42.068Z,31.70
2018-04-22T10:04:10.352Z,31.50
2018-04-22T10:06:38.609Z,31.60
2018-04-22T10:09:07.605Z,31.40
2018-04-22T10:11:35.835Z,31.40
2018-04-22T10:14:04.113Z,31.50
2018-04-22T10:16:32.406Z,31.40
2018-04-22T10:19:00.603Z,31.40
2018-04-22T10:21:28.828Z,31.40
2018-04-22T10:23:57.098Z,31.30
2018-04-22T10:26:25.358Z,31.40
2018-04-22T10:28:54.384Z,30.90
2018-04-22T10:31:22.690Z,30.90
2018-04-22T10:33:51.706Z,30.60
2018-04-22T10:36:20.460Z,30.50
2018-04-22T10:38:48.708Z,30.40
2018-04-22T10:41:17.719Z,30.80
2018-04-22T10:43:46.090Z,30.80
2018-04-22T10:46:15.115Z,30.90
2018-04-22T10:48:43.382Z,30.90
2018-04-22T10:51:11.607Z,30.50
2018-04-22T10:53:39.892Z,30.30
2018-04-22T10:56:08.150Z,30.30
2018-04-22T10:58:36.389Z,30.00
2018-04-22T11:01:05.403Z,29.80
2018-04-22T11:03:33.653Z,29.70
2018-04-22T11:06:01.906Z,29.70
2018-04-22T11:08:30.241Z,29.70
2018-04-22T11:10:59.252Z,30.20
2018-04-22T11:13:27.511Z,30.20
2018-04-22T11:15:56.562Z,30.60
2018-04-22T11:18:24.795Z,30.60
2018-04-22T11:20:53.808Z,31.10
2018-04-22T11:23:22.088Z,31.00
2018-04-22T11:25:51.172Z,31.10
2018-04-22T11:28:20.192Z,31.50
2018-04-22T11:30:48.466Z,31.50
2018-04-22T11:33:16.855Z,32.10
2018-04-22T11:35:45.842Z,32.40
2018-04-22T11:38:14.871Z,32.70
2018-04-22T11:40:43.145Z,32.70
2018-04-22T11:43:11.392Z,32.80
2018-04-22T11:45:40.424Z,32.50
2018-04-22T11:48:08.674Z,32.50
2018-04-22T11:50:37.813Z,32.40
2018-04-22T11:53:06.780Z,32.30
2018-04-22T11:55:35.804Z,31.20
2018-04-22T11:58:04.052Z,31.20
2018-04-22T12:00:33.158Z,31.10
2018-04-22T12:03:02.896Z,31.00
2018-04-22T12:05:31.139Z,30.90
2018-04-22T12:08:00.157Z,30.80
2018-04-22T12:10:28.432Z,30.70
2018-04-22T12:12:57.429Z,30.80
2018-04-22T12:15:26.496Z,30.60
2018-04-22T12:17:55.474Z,30.50
2018-04-22T12:20:23.735Z,30.30
2018-04-22T12:22:51.977Z,30.10
2018-04-22T12:25:21.014Z,30.00
2018-04-22T12:27:49.271Z,30.00
2018-04-22T12:30:18.294Z,31.00
2018-04-22T12:32:46.534Z,31.00
2018-04-22T12:35:14.806Z,31.10
2018-04-22T12:37:43.042Z,31.90
2018-04-22T12:40:11.323Z,31.50
2018-04-22T12:42:39.563Z,31.40
2018-04-22T12:45:08.600Z,31.30
2018-04-22T12:47:36.856Z,31.30
2018-04-22T12:50:05.879Z,30.80
2018-04-22T12:52:34.111Z,30.70
2018-04-22T12:55:02.392Z,30.60
2018-04-22T12:57:30.644Z,30.40
2018-04-22T12:59:58.903Z,30.10
2018-04-22T13:02:27.129Z,29.90
2018-04-22T13:04:55.389Z,29.70
2018-04-22T13:07:23.636Z,29.70
2018-04-22T13:09:51.914Z,29.60
2018-04-22T13:12:20.146Z,29.50
2018-04-22T13:14:48.387Z,29.30
2018-04-22T13:17:16.664Z,29.50
2018-04-22T13:19:45.618Z,29.60
2018-04-22T13:22:13.911Z,29.20
2018-04-22T13:24:42.916Z,28.40
2018-04-22T13:27:11.956Z,28.10
2018-04-22T13:29:40.221Z,28.10
2018-04-22T13:32:08.494Z,27.80
2018-04-22T13:34:36.768Z,27.60
2018-04-22T13:37:05.801Z,27.20
2018-04-22T13:39:34.043Z,27.20
2018-04-22T13:42:03.425Z,27.00
2018-04-22T13:44:31.652Z,26.90
2018-04-22T13:46:59.922Z,26.70
2018-04-22T13:49:28.648Z,26.60
2018-04-22T13:51:56.910Z,26.50
2018-04-22T13:54:25.196Z,26.30
2018-04-22T13:56:53.444Z,26.10
2018-04-22T13:59:22.430Z,25.50
2018-04-22T14:01:50.684Z,25.50
2018-04-22T14:04:18.928Z,25.20
2018-04-22T14:06:47.191Z,24.00
2018-04-22T14:09:15.448Z,23.10
2018-04-22T14:11:43.717Z,23.20
2018-04-22T14:14:12.211Z,23.50
2018-04-22T14:16:41.035Z,23.80
2018-04-22T14:19:09.290Z,23.70
2018-04-22T14:21:37.568Z,24.00
2018-04-22T14:24:05.795Z,24.50
2018-04-22T14:26:34.048Z,24.30
2018-04-22T14:29:03.078Z,24.00
2018-04-22T14:31:31.407Z,24.00
2018-04-22T14:33:59.648Z,23.90
2018-04-22T14:36:27.988Z,23.80
2018-04-22T14:38:57.021Z,24.50
2018-04-22T14:41:25.548Z,24.40
2018-04-22T14:44:05.745Z,25.30
2018-04-22T14:46:34.037Z,25.80
2018-04-22T14:49:05.214Z,26.10
2018-04-22T14:51:34.279Z,26.00
2018-04-22T14:54:02.526Z,26.00
2018-04-22T14:56:31.101Z,25.90
2018-04-22T14:58:59.349Z,25.80
2018-04-22T15:01:28.224Z,25.70
2018-04-22T15:03:56.468Z,25.60
2018-04-22T15:06:24.745Z,25.60
2018-04-22T15:08:53.569Z,25.40
2018-04-22T15:11:23.023Z,25.20
2018-04-22T15:13:51.307Z,25.10
2018-04-22T15:16:19.591Z,24.90
2018-04-22T15:18:47.858Z,24.80
2018-04-22T15:21:16.093Z,24.80
2018-04-22T15:23:45.146Z,24.70
2018-04-22T15:26:13.417Z,24.70
2018-04-22T15:28:41.688Z,24.90
2018-04-22T15:31:09.951Z,25.00
2018-04-22T15:33:38.995Z,24.90
2018-04-22T15:36:07.255Z,24.90
2018-04-22T15:38:35.535Z,24.70
2018-04-22T15:41:03.781Z,24.40
2018-04-22T15:43:32.815Z,24.10
2018-04-22T15:46:01.060Z,24.10
2018-04-22T15:48:30.073Z,24.10
2018-04-22T15:50:58.328Z,24.10
2018-04-22T15:53:26.599Z,24.00
2018-04-22T15:55:54.841Z,24.00
2018-04-22T15:58:23.082Z,24.00
2018-04-22T16:00:52.089Z,23.80
2018-04-22T16:03:21.164Z,23.60
2018-04-22T16:05:49.425Z,23.60
2018-04-22T16:08:17.721Z,23.50
2018-04-22T16:10:45.900Z,23.70
2018-04-22T16:13:14.153Z,23.70
2018-04-22T16:15:42.399Z,23.70
2018-04-22T16:18:11.448Z,23.80
2018-04-22T16:20:39.698Z,23.70
2018-04-22T16:23:07.979Z,23.70
2018-04-22T16:25:36.227Z,23.60
2018-04-22T16:28:05.266Z,23.60
2018-04-22T16:30:33.485Z,23.60
2018-04-22T16:33:01.756Z,23.50
2018-04-22T16:35:30.011Z,23.50
2018-04-22T16:37:58.291Z,23.50
2018-04-22T16:40:26.520Z,23.50
2018-04-22T16:42:54.775Z,23.50
2018-04-22T16:45:23.019Z,23.30
2018-04-22T16:47:51.748Z,23.20
2018-04-22T16:50:20.009Z,23.10
2018-04-22T16:52:48.274Z,23.00
2018-04-22T16:55:17.089Z,23.00
2018-04-22T16:57:46.813Z,22.90
2018-04-22T17:00:15.672Z,22.80
2018-04-22T17:02:43.947Z,22.70
2018-04-22T17:05:12.961Z,22.60
2018-04-22T17:07:41.292Z,22.60
2018-04-22T17:10:09.549Z,22.60
2018-04-22T17:12:37.776Z,22.60
2018-04-22T17:15:06.799Z,22.60
2018-04-22T17:17:35.680Z,22.60
2018-04-22T17:20:03.977Z,22.60
2018-04-22T17:22:32.221Z,22.40
2018-04-22T17:25:00.508Z,22.40
2018-04-22T17:27:28.760Z,22.30
2018-04-22T17:29:57.029Z,22.30
2018-04-22T17:32:25.276Z,22.30
2018-04-22T17:34:53.513Z,22.30
2018-04-22T17:37:21.747Z,22.30
2018-04-22T17:39:49.987Z,22.30
2018-04-22T17:42:18.236Z,22.30
2018-04-22T17:44:46.504Z,22.30
2018-04-22T17:47:14.752Z,22.30
2018-04-22T17:49:43.756Z,22.20
2018-04-22T17:52:11.996Z,22.20
2018-04-22T17:54:40.237Z,22.20
2018-04-22T17:57:08.507Z,22.20
2018-04-22T17:59:36.778Z,22.20
2018-04-22T18:02:05.035Z,22.30
2018-04-22T18:04:34.049Z,22.20
2018-04-22T18:07:03.085Z,22.20
2018-04-22T18:09:31.292Z,22.20
2018-04-22T18:11:59.527Z,22.20
2018-04-22T18:14:27.824Z,22.20
2018-04-22T18:16:56.018Z,22.30
2018-04-22T18:19:24.291Z,22.30
2018-04-22T18:21:52.987Z,22.30
2018-04-22T18:24:21.252Z,22.20
2018-04-22T18:26:50.467Z,22.30
2018-04-22T18:29:19.432Z,22.30
2018-04-22T18:31:47.671Z,22.30
2018-04-22T18:34:16.811Z,22.30
2018-04-22T18:36:45.812Z,22.30
2018-04-22T18:39:14.148Z,22.30
2018-04-22T18:41:42.407Z,22.20
2018-04-22T18:44:10.652Z,22.20
2018-04-22T18:46:39.710Z,22.20
2018-04-22T18:49:07.981Z,22.20
2018-04-22T18:51:36.208Z,22.10
2018-04-22T18:54:05.248Z,22.20
2018-04-22T18:56:33.489Z,22.20
2018-04-22T18:59:02.511Z,22.20
2018-04-22T19:01:30.746Z,22.20
2018-04-22T19:03:59.037Z,22.00
2018-04-22T19:06:28.049Z,21.80
2018-04-22T19:08:57.075Z,21.60
2018-04-22T19:11:25.975Z,21.60
2018-04-22T19:13:54.321Z,21.50
2018-04-22T19:16:23.348Z,21.10
2018-04-22T19:18:51.640Z,21.10
2018-04-22T19:21:19.921Z,21.00
2018-04-22T19:23:48.167Z,20.80
2018-04-22T19:26:17.197Z,20.50
2018-04-22T19:28:45.436Z,20.40
2018-04-22T19:31:14.444Z,20.10
2018-04-22T19:33:44.320Z,20.00
2018-04-22T19:36:12.568Z,19.90
2018-04-22T19:38:40.825Z,19.80
2018-04-22T19:41:09.868Z,19.60
2018-04-22T19:43:38.560Z,19.60
2018-04-22T19:46:06.804Z,19.60
2018-04-22T19:48:36.528Z,19.40
2018-04-22T19:51:04.795Z,19.40
2018-04-22T19:53:33.781Z,19.40
2018-04-22T19:56:02.820Z,19.40
2018-04-22T19:58:31.613Z,19.30
2018-04-22T20:00:59.860Z,19.40
2018-04-22T20:03:28.889Z,19.40
2018-04-22T20:05:57.165Z,19.40
2018-04-22T20:08:25.424Z,19.40
2018-04-22T20:10:53.680Z,19.30
2018-04-22T20:13:22.559Z,19.30
2018-04-22T20:15:50.822Z,19.30
2018-04-22T20:18:19.413Z,19.30
2018-04-22T20:20:47.672Z,19.30
2018-04-22T20:23:15.916Z,19.20
2018-04-22T20:25:44.209Z,19.20
2018-04-22T20:28:12.436Z,19.20
2018-04-22T20:30:40.715Z,19.20
2018-04-22T20:33:08.942Z,19.20
2018-04-22T20:35:38.699Z,19.10
2018-04-22T20:38:06.913Z,19.10
2018-04-22T20:40:35.161Z,19.10
2018-04-22T20:43:03.429Z,19.00
2018-04-22T20:45:31.722Z,18.90
2018-04-22T20:47:59.965Z,18.80
2018-04-22T20:50:28.984Z,18.60
2018-04-22T20:52:57.228Z,18.60
2018-04-22T20:55:25.528Z,18.50
2018-04-22T20:57:54.553Z,18.50
2018-04-22T21:00:22.812Z,18.50
2018-04-22T21:02:51.855Z,18.40
2018-04-22T21:05:20.283Z,18.40
2018-04-22T21:07:49.326Z,18.40
2018-04-22T21:10:18.156Z,18.30
2018-04-22T21:12:46.425Z,18.30
2018-04-22T21:15:14.881Z,18.30
2018-04-22T21:17:43.114Z,18.30
2018-04-22T21:20:11.356Z,18.30
2018-04-22T21:22:39.614Z,18.30
2018-04-22T21:25:07.887Z,18.20
2018-04-22T21:27:36.978Z,18.10
2018-04-22T21:30:05.398Z,18.00
2018-04-22T21:32:33.676Z,17.90
2018-04-22T21:35:01.964Z,17.90
2018-04-22T21:37:30.249Z,17.80
2018-04-22T21:39:59.267Z,17.80
2018-04-22T21:42:28.381Z,17.70
2018-04-22T21:44:56.629Z,17.70
2018-04-22T21:47:24.895Z,17.60
2018-04-22T21:49:53.146Z,17.70
2018-04-22T21:52:21.383Z,17.60
2018-04-22T21:54:49.645Z,17.60
2018-04-22T21:57:18.488Z,17.70
2018-04-22T21:59:46.750Z,17.90
2018-04-22T22:02:15.021Z,17.80
2018-04-22T22:04:43.278Z,17.90
2018-04-22T22:07:11.554Z,18.00
2018-04-22T22:09:40.248Z,18.00
2018-04-22T22:12:08.535Z,17.90
2018-04-22T22:14:36.799Z,17.70
2018-04-22T22:17:06.095Z,17.50
2018-04-22T22:19:35.117Z,17.40
2018-04-22T22:22:03.369Z,17.40
2018-04-22T22:24:32.392Z,17.50
2018-04-22T22:27:01.619Z,17.50
2018-04-22T22:29:30.608Z,17.40
2018-04-22T22:31:58.876Z,17.50
2018-04-22T22:34:27.113Z,17.60
2018-04-22T22:36:55.389Z,17.60
2018-04-22T22:39:23.628Z,17.50
2018-04-22T22:41:52.000Z,17.50
2018-04-22T22:44:21.096Z,17.40
2018-04-22T22:46:49.358Z,17.30
2018-04-22T22:49:18.380Z,17.10
2018-04-22T22:51:46.640Z,17.00
2018-04-22T22:54:15.658Z,17.20
2018-04-22T22:56:43.956Z,17.20
2018-04-22T22:59:12.220Z,17.50
2018-04-22T23:01:41.226Z,17.20
2018-04-22T23:04:09.479Z,17.20
2018-04-22T23:06:38.530Z,17.20
2018-04-22T23:09:06.765Z,17.20
2018-04-22T23:11:35.784Z,17.30
2018-04-22T23:14:04.032Z,17.30
2018-04-22T23:16:33.051Z,17.10
2018-04-22T23:19:01.332Z,17.10
2018-04-22T23:21:29.629Z,17.10
2018-04-22T23:23:57.890Z,17.10
2018-04-22T23:26:26.165Z,16.90
2018-04-22T23:28:55.216Z,16.80
2018-04-22T23:31:24.056Z,16.80
2018-04-22T23:33:53.081Z,16.90
2018-04-22T23:36:21.332Z,16.90
2018-04-22T23:38:50.340Z,16.70
2018-04-22T23:41:19.356Z,16.70
2018-04-22T23:43:48.292Z,16.70
2018-04-22T23:46:16.533Z,16.70
2018-04-22T23:48:44.787Z,16.80
2018-04-22T23:51:13.872Z,16.90
2018-04-22T23:53:42.128Z,16.90
2018-04-22T23:56:10.402Z,17.00
2018-04-22T23:58:38.672Z,17.00
